Terminal Aerodrome Forecast
Issued by NWS

Home | Current Version | Previous Version | Text Only | Print | Product List | Glossary On
Versions: 1 2 3 4 5 6 7 8 9 10 11 12 13 14 15 16 17 18
000
FTUS45 KABQ 051700 RRA
TAFLVS
TAF
KLVS 051741Z 0518/0618 20012G18KT P6SM VCTS SCT015 BKN040CB
      TEMPO 0518/0521 VRB25G35KT 5SM TSRA OVC030CB
     FM052100 23016G26KT P6SM VCSH SCT040 BKN090
     FM060200 22013KT P6SM SCT025 BKN050
      TEMPO 0609/0612 4SM BR OVC015
     FM061500 24015KT P6SM SCT070=

USA.gov is the U.S. government's official web portal to all federal, state and local government web resources and services.